Latest Weather Observations for Wagga Wagga

IDN60801

Issued at 12:05 pm EDT Wednesday 13 December 2017 (issued every 30 minutes, with the page automatically refreshed every 10 minutes)

About weather observations | Map of weather stations | Latest weather observations for NSW | Other Formats
Station Details ID: 072150 Name: WAGGA WAGGA AMO Lat: -35.16 Lon: 147.46 Height: 212.0 m
Data from the previous 72 hours. | See also: Recent months at Wagga Wagga
Date/Time
EDT
Temp
°C
App
Temp
°C
Dew
Point
°C
Rel
Hum
%
Delta-T
°C
Wind Press
QNH
hPa
Press
MSL
hPa
Rain since
9am
mm
Dir  Spd
km/h
Gust
km/h
Spd
kts
Gust
kts
13/12:00pm 32.3 30.3 8.5 23 13.4 E 9 15 5 8 1011.7 1010.9 -
13/11:30am 31.7 30.8 12.5 31 11.5 NNE 9 17 5 9 1012.1 1011.3 0.0
13/11:00am 30.8 30.4 13.1 34 10.6 ENE 7 13 4 7 1012.4 1011.6 0.0
13/10:30am 29.3 28.2 13.1 37 9.7 E 11 15 6 8 1012.7 1011.9 0.0
13/10:00am 28.1 27.0 13.2 39 8.9 E 11 17 6 9 1012.9 1012.1 0.0
13/09:30am 26.2 24.6 11.5 40 8.4 ESE 11 15 6 8 1013.2 1012.4 0.0
13/09:00am 25.3 23.6 11.1 41 8.1 E 11 17 6 9 1013.4 1012.6 0.0
13/08:30am 23.6 21.6 11.6 47 6.8 E 13 17 7 9 1013.6 1012.8 0.0
13/08:00am 21.1 18.3 11.4 54 5.4 E 17 19 9 10 1013.6 1012.8 0.0
13/07:30am 19.9 17.4 11.1 57 4.9 ESE 15 17 8 9 1013.5 1012.7 0.0
13/07:00am 18.8 16.7 11.1 61 4.2 ESE 13 13 7 7 1013.3 1012.5 0.0
13/06:30am 16.9 14.7 10.7 67 3.3 SE 13 15 7 8 1013.0 1012.2 0.0
13/06:00am 15.5 13.7 10.7 73 2.6 ESE 11 15 6 8 1012.7 1011.9 0.0
13/05:30am 14.5 13.3 9.7 73 2.5 ESE 6 9 3 5 1012.5 1011.7 0.0
13/05:00am 16.6 15.3 9.8 64 3.6 E 7 7 4 4 1012.3 1011.5 0.0
13/04:30am 17.2 14.9 9.1 59 4.2 E 11 13 6 7 1012.2 1011.4 0.0
13/04:00am 15.9 14.7 10.2 69 3.0 ENE 7 9 4 5 1012.2 1011.4 0.0
13/03:30am 15.4 15.6 10.6 73 2.6 CALM 0 0 0 0 1012.1 1011.3 0.0
13/03:00am 16.5 15.4 10.1 66 3.4 ENE 6 9 3 5 1012.0 1011.2 0.0
13/02:30am 16.7 15.7 11.0 69 3.1 E 7 9 4 5 1012.0 1011.2 0.0
13/02:00am 16.7 15.6 10.5 67 3.3 ESE 7 7 4 4 1012.2 1011.4 0.0
13/01:30am 17.8 16.1 9.7 59 4.3 ESE 9 13 5 7 1012.3 1011.5 0.0
13/01:00am 18.0 16.6 9.4 57 4.6 SE 7 9 4 5 1012.5 1011.7 0.0
13/12:30am 18.8 17.1 9.8 56 4.8 ESE 9 13 5 7 1012.7 1011.9 0.0
13/12:00am 19.4 18.1 9.9 54 5.1 E 7 9 4 5 1013.0 1012.2 0.0
 
Date/Time
EDT
Temp
°C
App
Temp
°C
Dew
Point
°C
Rel
Hum
%
Delta-T
°C
Wind Press
QNH
hPa
Press
MSL
hPa
Rain since
9am
mm
Dir  Spd
km/h
Gust
km/h
Spd
kts
Gust
kts
12/11:30pm 19.6 19.8 10.6 56 4.9 CALM 0 0 0 0 1013.2 1012.4 0.0
12/11:00pm 20.4 19.4 11.1 55 5.2 ENE 7 9 4 5 1013.4 1012.6 0.0
12/10:30pm 23.0 21.3 8.3 39 7.9 ENE 7 9 4 5 1013.5 1012.7 0.0
12/10:00pm 23.5 23.0 8.0 37 8.3 CALM 0 0 0 0 1013.7 1012.9 0.0
12/09:30pm 23.8 23.4 8.2 37 8.4 CALM 0 0 0 0 1013.6 1012.8 0.0
12/09:00pm 24.6 22.8 7.3 33 9.2 SW 6 9 3 5 1013.5 1012.7 0.0
12/08:30pm 27.0 25.0 6.9 28 10.7 WSW 7 7 4 4 1013.4 1012.6 0.0
12/08:00pm 29.1 26.9 7.7 26 11.7 WSW 9 11 5 6 1013.2 1012.4 0.0
12/07:30pm 30.1 27.0 7.3 24 12.4 WSW 13 15 7 8 1013.1 1012.3 0.0
12/07:00pm 31.6 28.5 7.3 22 13.4 WSW 13 20 7 11 1012.8 1012.0 0.0
12/06:30pm 32.4 28.8 6.6 20 14.1 SSW 15 20 8 11 1012.7 1011.9 0.0
12/06:00pm 32.7 29.9 5.3 18 14.7 SW 9 13 5 7 1012.7 1011.9 0.0
12/05:30pm 32.7 29.2 5.3 18 14.7 WSW 13 22 7 12 1012.7 1011.9 0.0
12/05:00pm 32.5 28.9 5.1 18 14.6 W 13 22 7 12 1012.9 1012.1 0.0
12/04:30pm 32.7 29.2 5.3 18 14.7 NNW 13 26 7 14 1013.1 1012.3 0.0
12/04:00pm 32.9 30.1 8.4 22 13.8 WSW 13 22 7 12 1013.5 1012.7 0.0
12/03:30pm 32.0 29.3 5.5 19 14.2 NW 9 26 5 14 1013.7 1012.9 0.0
12/03:00pm 32.0 28.0 8.9 24 13.1 WNW 20 32 11 17 1014.0 1013.2 0.0
12/02:30pm 31.7 27.9 6.0 20 13.9 WSW 15 30 8 16 1014.5 1013.6 0.0
12/02:00pm 31.0 27.4 6.8 22 13.2 WNW 15 22 8 12 1014.8 1013.9 0.0
12/01:30pm 30.9 29.4 8.6 25 12.5 WNW 6 13 3 7 1015.2 1014.3 0.0
12/01:00pm 30.2 27.1 7.4 24 12.5 N 13 28 7 15 1015.6 1014.8 0.0
12/12:30pm 30.0 27.3 9.0 27 11.8 W 13 32 7 17 1016.0 1015.2 0.0
12/12:00pm 29.4 26.8 6.1 23 12.4 WNW 9 17 5 9 1016.3 1015.5 0.0
12/11:30am 28.6 27.9 12.1 36 9.7 N 7 15 4 8 1016.7 1015.9 0.0
12/11:00am 28.0 27.6 13.1 39 8.8 ENE 7 11 4 6 1017.0 1016.2 0.0
12/10:30am 26.7 26.2 14.8 48 7.2 NE 11 19 6 10 1017.2 1016.4 0.0
12/10:00am 25.8 25.0 14.0 48 7.0 ENE 11 19 6 10 1017.5 1016.7 0.0
12/09:30am 25.3 24.7 15.6 55 5.9 ENE 13 19 7 10 1017.6 1016.8 0.0
12/09:00am 24.0 22.7 14.7 56 5.6 ENE 15 19 8 10 1017.6 1016.8 0.0
12/08:30am 22.8 21.2 14.9 61 4.7 ENE 17 24 9 13 1017.7 1016.9 0.0
12/08:00am 21.7 20.3 15.5 68 3.7 ENE 17 26 9 14 1017.4 1016.6 0.0
12/07:30am 21.0 20.1 15.8 72 3.1 ENE 15 19 8 10 1017.1 1016.3 0.0
12/07:00am 19.7 20.5 14.7 73 2.9 ESE 4 9 2 5 1017.0 1016.2 0.0
12/06:30am 17.3 16.9 14.0 81 1.9 E 9 13 5 7 1016.6 1015.8 0.0
12/06:00am 17.0 17.8 14.8 87 1.3 E 4 9 2 5 1016.3 1015.5 0.0
12/05:30am 15.5 14.6 12.6 83 1.6 E 9 13 5 7 1016.0 1015.2 0.0
12/05:00am 18.5 18.6 14.4 77 2.4 ENE 7 11 4 6 1015.8 1015.0 0.0
12/04:30am 18.8 18.0 15.1 79 2.2 ENE 13 17 7 9 1015.6 1014.8 0.0
12/04:00am 16.3 15.1 11.7 74 2.5 E 9 13 5 7 1015.6 1014.8 0.0
12/03:30am 17.1 15.2 10.5 65 3.6 E 11 13 6 7 1015.7 1014.9 0.0
12/03:00am 19.3 17.0 10.6 57 4.7 ENE 13 19 7 10 1015.7 1014.9 0.0
12/02:30am 19.1 16.2 9.6 54 5.1 E 15 15 8 8 1015.8 1015.0 0.0
12/02:00am 19.2 17.3 9.1 52 5.4 E 9 13 5 7 1016.0 1015.2 0.0
12/01:30am 18.5 16.7 9.6 56 4.7 ENE 9 11 5 6 1016.0 1015.2 0.0
12/01:00am 18.5 16.9 10.1 58 4.5 NE 9 9 5 5 1016.1 1015.3 0.0
12/12:30am 18.9 18.5 9.9 56 4.8 NE 2 7 1 4 1016.1 1015.3 0.0
12/12:00am 20.4 19.1 9.3 49 5.9 NE 6 7 3 4 1016.2 1015.4 0.0
 
Date/Time
EDT
Temp
°C
App
Temp
°C
Dew
Point
°C
Rel
Hum
%
Delta-T
°C
Wind Press
QNH
hPa
Press
MSL
hPa
Rain since
9am
mm
Dir  Spd
km/h
Gust
km/h
Spd
kts
Gust
kts
11/11:30pm 20.2 19.1 10.6 54 5.3 S 7 9 4 5 1016.3 1015.5 0.0
11/11:00pm 21.0 20.9 9.3 47 6.3 CALM 0 0 0 0 1016.4 1015.6 0.0
11/10:30pm 21.1 18.9 9.4 47 6.3 SSW 11 11 6 6 1016.3 1015.5 0.0
11/10:00pm 19.7 17.9 9.6 52 5.4 SSW 9 11 5 6 1016.0 1015.2 0.0
11/09:30pm 23.0 21.5 9.0 41 7.6 SSE 7 9 4 5 1015.8 1015.0 0.0
11/09:00pm 23.6 21.2 9.9 42 7.6 S 13 15 7 8 1015.7 1014.9 0.0
11/08:30pm 25.2 22.4 8.7 35 9.0 S 13 13 7 7 1015.5 1014.7 0.0
11/08:00pm 26.7 24.0 9.1 33 9.7 S 13 13 7 7 1015.4 1014.6 0.0
11/07:30pm 28.6 25.2 7.8 27 11.4 SSW 15 20 8 11 1015.2 1014.3 0.0
11/07:00pm 29.8 26.8 7.7 25 12.1 SSW 13 20 7 11 1015.0 1014.1 0.0
11/06:30pm 31.5 29.6 9.1 25 12.7 WSW 9 15 5 8 1014.8 1013.9 0.0
11/06:00pm 31.6 28.0 6.6 21 13.6 WSW 15 26 8 14 1014.7 1013.8 0.0
11/05:30pm 31.8 27.9 5.3 19 14.1 SW 15 24 8 13 1014.7 1013.8 0.0
11/05:00pm 31.4 26.8 1.7 15 14.9 SW 15 26 8 14 1014.9 1014.0 0.0
11/04:30pm 31.9 28.7 6.9 21 13.7 SSW 13 19 7 10 1015.2 1014.3 0.0
11/04:00pm 31.6 28.6 5.9 20 13.8 SSW 11 15 6 8 1015.4 1014.6 0.0
11/03:30pm 31.4 29.2 7.8 23 13.1 W 9 19 5 10 1015.8 1015.0 0.0
11/03:00pm 30.9 27.4 8.6 25 12.5 W 17 26 9 14 1016.2 1015.4 0.0
11/02:30pm 30.8 28.9 6.6 22 13.1 SSW 6 15 3 8 1016.4 1015.6 0.0
11/02:00pm 30.7 26.8 7.2 23 12.8 WSW 17 26 9 14 1016.8 1016.0 0.0
11/01:30pm 29.9 26.9 5.9 22 12.8 WNW 11 28 6 15 1017.3 1016.5 0.0
11/01:00pm 29.3 25.0 5.4 22 12.6 W 17 28 9 15 1017.8 1017.0 0.0
11/12:30pm 29.1 25.8 6.5 24 12.1 NW 13 22 7 12 1018.0 1017.2 0.0
11/12:00pm 29.3 25.9 7.8 26 11.8 SSW 15 24 8 13 1018.4 1017.6 0.0
11/11:30am 28.3 25.4 8.1 28 11.1 WNW 13 22 7 12 1018.6 1017.8 0.0
11/11:00am 28.0 25.5 6.7 26 11.4 N 9 24 5 13 1019.3 1018.4 0.0
11/10:30am 26.6 25.2 9.0 33 9.7 SW 6 9 3 5 1019.5 1018.7 0.0
11/10:00am 25.1 24.3 11.6 42 7.7 NW 7 9 4 5 1019.7 1018.9 0.0
11/09:30am 24.0 23.5 12.0 47 6.9 W 6 11 3 6 1019.9 1019.1 0.0
11/09:00am 23.0 22.8 12.9 53 5.8 NNE 6 9 3 5 1020.0 1019.2 0.0
11/08:30am 22.3 21.7 13.6 58 5.1 NE 9 13 5 7 1020.0 1019.2 0.0
11/08:00am 20.8 20.4 13.0 61 4.5 ENE 7 11 4 6 1019.6 1018.8 0.0
11/07:30am 19.6 18.6 12.4 63 4.1 ESE 9 13 5 7 1019.2 1018.3 0.0
11/07:00am 16.5 17.2 12.3 76 2.3 CALM 0 0 0 0 1018.8 1018.0 0.0
11/06:30am 14.7 13.4 11.1 79 1.9 SE 9 11 5 6 1018.6 1017.8 0.0
11/06:00am 16.0 14.3 11.2 73 2.6 E 11 13 6 7 1018.5 1017.7 0.0
11/05:30am 15.4 15.9 11.6 78 2.1 CALM 0 7 0 4 1018.2 1017.4 0.0
11/05:00am 15.3 15.6 10.9 75 2.4 CALM 0 0 0 0 1018.1 1017.3 0.0
11/04:30am 15.4 16.0 12.0 80 1.9 CALM 0 0 0 0 1017.7 1016.9 0.0
11/04:00am 16.3 16.7 11.2 72 2.8 CALM 0 0 0 0 1017.6 1016.8 0.0
11/03:30am 16.4 16.4 11.1 71 2.9 ENE 2 7 1 4 1017.5 1016.7 0.0
11/03:00am 16.8 16.4 11.1 69 3.1 ENE 4 7 2 4 1017.5 1016.7 0.0
11/02:30am 18.1 17.7 12.3 69 3.2 ENE 6 9 3 5 1017.7 1016.9 0.0
11/02:00am 17.9 18.1 11.9 68 3.3 ENE 2 6 1 3 1018.0 1017.2 0.0
11/01:30am 18.4 17.8 12.2 67 3.5 ENE 7 7 4 4 1018.2 1017.4 0.0
11/01:00am 19.2 19.9 12.2 64 3.9 CALM 0 0 0 0 1018.5 1017.7 0.0
11/12:30am 19.6 19.1 11.9 61 4.3 N 6 9 3 5 1018.7 1017.9 0.0
11/12:00am 20.5 20.7 11.7 57 4.9 SSE 2 7 1 4 1018.9 1018.1 0.0
 
Date/Time
EDT
Temp
°C
App
Temp
°C
Dew
Point
°C
Rel
Hum
%
Delta-T
°C
Wind Press
QNH
hPa
Press
MSL
hPa
Rain since
9am
mm
Dir  Spd
km/h
Gust
km/h
Spd
kts
Gust
kts
10/11:30pm 20.4 19.6 11.1 55 5.2 SSW 6 11 3 6 1018.9 1018.1 0.0
10/11:00pm 21.1 21.5 11.4 54 5.4 CALM 0 6 0 3 1019.1 1018.2 0.0
10/10:30pm 20.1 19.0 12.1 60 4.5 SSW 9 11 5 6 1018.9 1018.1 0.0
10/10:00pm 20.6 19.9 13.1 62 4.3 SSW 9 9 5 5 1018.8 1018.0 0.0
10/09:30pm 22.0 21.1 12.5 54 5.4 SSW 9 9 5 5 1018.6 1017.8 0.0
10/09:00pm 22.8 21.6 11.5 49 6.4 SSW 9 11 5 6 1018.4 1017.6 0.0
10/08:30pm 24.4 23.0 11.0 43 7.6 SSW 9 11 5 6 1018.3 1017.5 0.0
10/08:00pm 26.3 23.7 9.2 34 9.4 SSW 13 15 7 8 1018.3 1017.5 0.0
10/07:30pm 27.7 25.5 9.5 32 10.2 SW 11 17 6 9 1018.0 1017.2 0.0
10/07:00pm 29.0 25.7 9.7 30 10.9 SW 17 24 9 13 1018.0 1017.2 0.0
10/06:30pm 29.5 26.8 9.1 28 11.4 SW 13 22 7 12 1017.8 1017.0 0.0
10/06:00pm 29.8 26.5 8.2 26 11.9 WSW 15 24 8 13 1017.8 1017.0 0.0
10/05:30pm 29.8 27.2 9.3 28 11.6 WSW 13 24 7 13 1017.9 1017.1 0.0
10/05:00pm 29.4 26.2 10.0 30 11.0 W 17 26 9 14 1018.1 1017.3 0.0
10/04:30pm 29.5 26.6 8.0 26 11.8 WSW 13 24 7 13 1018.4 1017.6 0.0
10/04:00pm 28.9 26.0 8.0 27 11.5 WSW 13 28 7 15 1018.6 1017.8 0.0
10/03:30pm 29.4 26.1 7.9 26 11.8 WSW 15 24 8 13 1018.8 1018.0 0.0
10/03:00pm 28.7 26.6 9.9 31 10.6 SW 11 24 6 13 1019.1 1018.2 0.0
10/02:30pm 28.1 25.1 7.9 28 11.0 WSW 13 19 7 10 1019.5 1018.7 0.0
10/02:00pm 27.7 24.8 8.1 29 10.7 WSW 13 28 7 15 1019.9 1019.1 0.0
10/01:30pm 27.7 24.9 10.0 33 10.0 WSW 15 26 8 14 1020.3 1019.5 0.0
10/01:00pm 26.9 23.5 9.3 33 9.7 WNW 17 26 9 14 1020.7 1019.9 0.0
10/12:30pm 26.4 24.5 10.5 37 9.0 NW 11 19 6 10 1021.0 1020.2 0.0

Other Formats:

Comma delimited format used in spreadsheet applications
http://www.bom.gov.au/fwo/IDN60801/IDN60801.94910.axf

JavaScript Object Notation format (JSON) in row-major order
http://www.bom.gov.au/fwo/IDN60801/IDN60801.94910.json